sensor_id;sensor_type;location;lat;lon;timestamp;P1;durP1;ratioP1;P2;durP2;ratioP2
29352;SDS011;16344;50.364;8.944;2023-04-12T00:01:48;9.73;;;1.98;;
29352;SDS011;16344;50.364;8.944;2023-04-12T00:04:13;14.45;;;3.17;;
29352;SDS011;16344;50.364;8.944;2023-04-12T00:06:40;17.95;;;2.40;;
29352;SDS011;16344;50.364;8.944;2023-04-12T00:09:12;13.70;;;2.23;;
29352;SDS011;16344;50.364;8.944;2023-04-12T00:11:39;15.75;;;3.63;;
29352;SDS011;16344;50.364;8.944;2023-04-12T00:14:05;16.00;;;2.13;;
29352;SDS011;16344;50.364;8.944;2023-04-12T00:16:31;17.23;;;2.67;;
29352;SDS011;16344;50.364;8.944;2023-04-12T00:18:56;17.08;;;2.08;;
29352;SDS011;16344;50.364;8.944;2023-04-12T00:21:22;11.77;;;1.88;;
29352;SDS011;16344;50.364;8.944;2023-04-12T00:23:47;9.55;;;1.95;;
29352;SDS011;16344;50.364;8.944;2023-04-12T00:26:13;15.25;;;2.00;;
29352;SDS011;16344;50.364;8.944;2023-04-12T00:28:40;17.42;;;3.08;;
29352;SDS011;16344;50.364;8.944;2023-04-12T00:31:06;10.10;;;2.85;;
29352;SDS011;16344;50.364;8.944;2023-04-12T00:33:33;16.70;;;2.75;;
29352;SDS011;16344;50.364;8.944;2023-04-12T00:35:59;11.35;;;2.88;;
29352;SDS011;16344;50.364;8.944;2023-04-12T00:38:25;10.27;;;2.22;;
29352;SDS011;16344;50.364;8.944;2023-04-12T00:40:50;7.30;;;2.22;;
29352;SDS011;16344;50.364;8.944;2023-04-12T00:43:16;13.30;;;2.17;;
29352;SDS011;16344;50.364;8.944;2023-04-12T00:45:43;12.02;;;2.63;;
29352;SDS011;16344;50.364;8.944;2023-04-12T00:48:10;11.20;;;2.42;;
29352;SDS011;16344;50.364;8.944;2023-04-12T00:50:36;11.25;;;2.45;;
29352;SDS011;16344;50.364;8.944;2023-04-12T00:53:02;7.13;;;1.83;;
29352;SDS011;16344;50.364;8.944;2023-04-12T00:55:28;13.63;;;2.58;;
29352;SDS011;16344;50.364;8.944;2023-04-12T00:57:54;23.10;;;2.58;;
29352;SDS011;16344;50.364;8.944;2023-04-12T01:00:20;11.40;;;2.22;;
29352;SDS011;16344;50.364;8.944;2023-04-12T01:02:46;10.88;;;2.40;;
29352;SDS011;16344;50.364;8.944;2023-04-12T01:05:14;21.98;;;2.97;;
29352;SDS011;16344;50.364;8.944;2023-04-12T01:13:06;9.35;;;2.35;;
29352;SDS011;16344;50.364;8.944;2023-04-12T01:15:50;11.70;;;2.30;;
29352;SDS011;16344;50.364;8.944;2023-04-12T01:18:20;12.98;;;1.80;;
29352;SDS011;16344;50.364;8.944;2023-04-12T01:20:52;17.23;;;2.30;;
29352;SDS011;16344;50.364;8.944;2023-04-12T01:23:33;17.95;;;2.55;;
29352;SDS011;16344;50.364;8.944;2023-04-12T01:26:28;8.73;;;2.35;;
29352;SDS011;16344;50.364;8.944;2023-04-12T01:29:01;22.23;;;3.47;;
29352;SDS011;16344;50.364;8.944;2023-04-12T01:31:31;15.05;;;2.53;;
29352;SDS011;16344;50.364;8.944;2023-04-12T01:34:00;11.45;;;2.40;;
29352;SDS011;16344;50.364;8.944;2023-04-12T01:36:27;9.57;;;2.08;;
29352;SDS011;16344;50.364;8.944;2023-04-12T01:38:54;9.85;;;2.55;;
29352;SDS011;16344;50.364;8.944;2023-04-12T01:41:21;13.32;;;2.33;;
29352;SDS011;16344;50.364;8.944;2023-04-12T01:43:46;11.10;;;2.35;;
29352;SDS011;16344;50.364;8.944;2023-04-12T01:46:13;9.32;;;2.15;;
29352;SDS011;16344;50.364;8.944;2023-04-12T01:48:40;10.30;;;2.42;;
29352;SDS011;16344;50.364;8.944;2023-04-12T01:54:10;9.15;;;2.40;;
29352;SDS011;16344;50.364;8.944;2023-04-12T01:56:42;14.85;;;2.60;;
29352;SDS011;16344;50.364;8.944;2023-04-12T01:59:11;14.02;;;2.97;;
29352;SDS011;16344;50.364;8.944;2023-04-12T02:01:39;10.98;;;2.78;;
29352;SDS011;16344;50.364;8.944;2023-04-12T02:04:05;20.25;;;3.55;;
29352;SDS011;16344;50.364;8.944;2023-04-12T02:06:33;16.55;;;2.92;;
29352;SDS011;16344;50.364;8.944;2023-04-12T02:09:00;7.63;;;2.75;;
29352;SDS011;16344;50.364;8.944;2023-04-12T02:11:27;11.63;;;3.03;;
29352;SDS011;16344;50.364;8.944;2023-04-12T02:13:52;22.25;;;3.67;;
29352;SDS011;16344;50.364;8.944;2023-04-12T02:16:18;17.02;;;3.10;;
29352;SDS011;16344;50.364;8.944;2023-04-12T02:18:44;15.13;;;3.38;;
29352;SDS011;16344;50.364;8.944;2023-04-12T02:21:11;10.27;;;2.25;;
29352;SDS011;16344;50.364;8.944;2023-04-12T02:23:37;15.55;;;2.70;;
29352;SDS011;16344;50.364;8.944;2023-04-12T02:26:02;15.02;;;3.20;;
29352;SDS011;16344;50.364;8.944;2023-04-12T02:28:28;38.63;;;4.18;;
29352;SDS011;16344;50.364;8.944;2023-04-12T02:30:53;14.73;;;2.72;;
29352;SDS011;16344;50.364;8.944;2023-04-12T02:33:19;23.35;;;3.40;;
29352;SDS011;16344;50.364;8.944;2023-04-12T02:35:52;14.45;;;3.08;;
29352;SDS011;16344;50.364;8.944;2023-04-12T02:38:18;12.65;;;2.42;;
29352;SDS011;16344;50.364;8.944;2023-04-12T02:40:43;19.85;;;3.38;;
29352;SDS011;16344;50.364;8.944;2023-04-12T02:43:09;10.18;;;2.42;;
29352;SDS011;16344;50.364;8.944;2023-04-12T02:45:34;16.77;;;2.75;;
29352;SDS011;16344;50.364;8.944;2023-04-12T02:48:00;22.27;;;3.83;;
29352;SDS011;16344;50.364;8.944;2023-04-12T02:50:26;7.47;;;2.67;;
29352;SDS011;16344;50.364;8.944;2023-04-12T02:52:52;13.90;;;3.15;;
29352;SDS011;16344;50.364;8.944;2023-04-12T02:55:18;11.43;;;3.40;;
29352;SDS011;16344;50.364;8.944;2023-04-12T02:57:44;16.55;;;3.60;;
29352;SDS011;16344;50.364;8.944;2023-04-12T03:00:12;11.60;;;3.28;;
29352;SDS011;16344;50.364;8.944;2023-04-12T03:02:42;13.85;;;3.60;;
29352;SDS011;16344;50.364;8.944;2023-04-12T03:05:08;11.93;;;2.83;;
29352;SDS011;16344;50.364;8.944;2023-04-12T03:07:34;11.57;;;2.45;;
29352;SDS011;16344;50.364;8.944;2023-04-12T03:10:00;13.45;;;3.08;;
29352;SDS011;16344;50.364;8.944;2023-04-12T03:12:26;17.85;;;2.88;;
29352;SDS011;16344;50.364;8.944;2023-04-12T03:14:52;19.02;;;4.68;;
29352;SDS011;16344;50.364;8.944;2023-04-12T03:17:18;21.13;;;3.67;;
29352;SDS011;16344;50.364;8.944;2023-04-12T03:19:43;24.60;;;4.13;;
29352;SDS011;16344;50.364;8.944;2023-04-12T03:22:09;21.80;;;3.63;;
29352;SDS011;16344;50.364;8.944;2023-04-12T03:24:35;19.00;;;4.55;;
29352;SDS011;16344;50.364;8.944;2023-04-12T03:27:01;21.08;;;3.97;;
29352;SDS011;16344;50.364;8.944;2023-04-12T03:29:27;25.27;;;3.50;;
29352;SDS011;16344;50.364;8.944;2023-04-12T03:31:53;17.35;;;3.03;;
29352;SDS011;16344;50.364;8.944;2023-04-12T03:34:21;18.17;;;3.33;;
29352;SDS011;16344;50.364;8.944;2023-04-12T03:36:51;12.57;;;3.65;;
29352;SDS011;16344;50.364;8.944;2023-04-12T03:39:18;15.30;;;3.78;;
29352;SDS011;16344;50.364;8.944;2023-04-12T03:41:44;22.92;;;3.83;;
29352;SDS011;16344;50.364;8.944;2023-04-12T03:44:10;13.85;;;3.42;;
29352;SDS011;16344;50.364;8.944;2023-04-12T03:46:36;19.77;;;4.50;;
29352;SDS011;16344;50.364;8.944;2023-04-12T03:49:01;23.30;;;4.28;;
29352;SDS011;16344;50.364;8.944;2023-04-12T03:51:27;14.20;;;3.45;;
29352;SDS011;16344;50.364;8.944;2023-04-12T03:53:54;17.38;;;4.63;;
29352;SDS011;16344;50.364;8.944;2023-04-12T03:56:20;14.48;;;3.35;;
29352;SDS011;16344;50.364;8.944;2023-04-12T03:58:46;27.05;;;3.70;;
29352;SDS011;16344;50.364;8.944;2023-04-12T04:01:11;13.40;;;3.90;;
29352;SDS011;16344;50.364;8.944;2023-04-12T04:03:38;12.63;;;3.20;;
29352;SDS011;16344;50.364;8.944;2023-04-12T04:06:05;19.15;;;4.97;;
29352;SDS011;16344;50.364;8.944;2023-04-12T04:08:31;26.63;;;4.38;;
29352;SDS011;16344;50.364;8.944;2023-04-12T04:10:57;20.50;;;4.65;;
29352;SDS011;16344;50.364;8.944;2023-04-12T04:13:23;25.48;;;4.47;;
29352;SDS011;16344;50.364;8.944;2023-04-12T04:15:50;12.88;;;3.38;;
29352;SDS011;16344;50.364;8.944;2023-04-12T04:20:48;13.20;;;3.33;;
29352;SDS011;16344;50.364;8.944;2023-04-12T04:23:13;12.27;;;3.35;;
29352;SDS011;16344;50.364;8.944;2023-04-12T04:25:39;19.73;;;3.85;;
29352;SDS011;16344;50.364;8.944;2023-04-12T04:28:05;26.50;;;4.20;;
29352;SDS011;16344;50.364;8.944;2023-04-12T04:30:32;18.75;;;3.38;;
29352;SDS011;16344;50.364;8.944;2023-04-12T04:32:58;20.98;;;4.38;;
29352;SDS011;16344;50.364;8.944;2023-04-12T04:35:24;11.85;;;3.35;;
29352;SDS011;16344;50.364;8.944;2023-04-12T04:37:49;15.93;;;5.10;;
29352;SDS011;16344;50.364;8.944;2023-04-12T04:40:18;20.38;;;3.70;;
29352;SDS011;16344;50.364;8.944;2023-04-12T04:42:45;8.85;;;3.13;;
29352;SDS011;16344;50.364;8.944;2023-04-12T04:45:18;14.43;;;3.20;;
29352;SDS011;16344;50.364;8.944;2023-04-12T04:47:45;13.45;;;3.80;;
29352;SDS011;16344;50.364;8.944;2023-04-12T04:50:11;16.77;;;3.33;;
29352;SDS011;16344;50.364;8.944;2023-04-12T04:52:37;21.52;;;3.97;;
29352;SDS011;16344;50.364;8.944;2023-04-12T04:55:03;15.73;;;2.85;;
29352;SDS011;16344;50.364;8.944;2023-04-12T04:57:29;18.02;;;3.60;;
29352;SDS011;16344;50.364;8.944;2023-04-12T04:59:54;19.63;;;4.43;;
29352;SDS011;16344;50.364;8.944;2023-04-12T05:02:20;12.98;;;3.10;;
29352;SDS011;16344;50.364;8.944;2023-04-12T05:04:46;10.77;;;3.00;;
29352;SDS011;16344;50.364;8.944;2023-04-12T05:07:11;10.65;;;3.17;;
29352;SDS011;16344;50.364;8.944;2023-04-12T05:09:38;10.02;;;3.78;;
29352;SDS011;16344;50.364;8.944;2023-04-12T05:12:03;24.52;;;3.65;;
29352;SDS011;16344;50.364;8.944;2023-04-12T05:14:29;12.13;;;3.47;;
29352;SDS011;16344;50.364;8.944;2023-04-12T05:16:54;13.35;;;3.38;;
29352;SDS011;16344;50.364;8.944;2023-04-12T05:19:20;16.05;;;3.20;;
29352;SDS011;16344;50.364;8.944;2023-04-12T05:21:46;17.95;;;3.28;;
29352;SDS011;16344;50.364;8.944;2023-04-12T05:24:11;10.52;;;3.42;;
29352;SDS011;16344;50.364;8.944;2023-04-12T05:26:37;12.27;;;3.67;;
29352;SDS011;16344;50.364;8.944;2023-04-12T05:29:02;14.02;;;3.35;;
29352;SDS011;16344;50.364;8.944;2023-04-12T05:31:28;22.95;;;4.00;;
29352;SDS011;16344;50.364;8.944;2023-04-12T05:33:53;17.02;;;3.50;;
29352;SDS011;16344;50.364;8.944;2023-04-12T05:36:19;15.18;;;3.70;;
29352;SDS011;16344;50.364;8.944;2023-04-12T05:38:45;11.98;;;2.85;;
29352;SDS011;16344;50.364;8.944;2023-04-12T05:41:10;9.48;;;3.63;;
29352;SDS011;16344;50.364;8.944;2023-04-12T05:43:36;20.75;;;5.93;;
29352;SDS011;16344;50.364;8.944;2023-04-12T05:46:02;21.25;;;4.22;;
29352;SDS011;16344;50.364;8.944;2023-04-12T05:48:29;12.80;;;3.30;;
29352;SDS011;16344;50.364;8.944;2023-04-12T05:50:55;11.68;;;3.22;;
29352;SDS011;16344;50.364;8.944;2023-04-12T05:53:20;17.48;;;3.13;;
29352;SDS011;16344;50.364;8.944;2023-04-12T05:55:46;12.85;;;3.92;;
29352;SDS011;16344;50.364;8.944;2023-04-12T05:58:12;10.82;;;3.40;;
29352;SDS011;16344;50.364;8.944;2023-04-12T06:00:40;16.63;;;3.30;;
29352;SDS011;16344;50.364;8.944;2023-04-12T06:03:07;14.00;;;3.45;;
29352;SDS011;16344;50.364;8.944;2023-04-12T06:05:36;10.85;;;3.50;;
29352;SDS011;16344;50.364;8.944;2023-04-12T06:08:02;9.07;;;2.90;;
29352;SDS011;16344;50.364;8.944;2023-04-12T06:10:29;8.10;;;2.80;;
29352;SDS011;16344;50.364;8.944;2023-04-12T06:12:55;14.48;;;3.00;;
29352;SDS011;16344;50.364;8.944;2023-04-12T06:15:21;17.02;;;3.13;;
29352;SDS011;16344;50.364;8.944;2023-04-12T06:17:46;11.60;;;3.95;;
29352;SDS011;16344;50.364;8.944;2023-04-12T06:20:12;16.45;;;3.15;;
29352;SDS011;16344;50.364;8.944;2023-04-12T06:22:37;16.27;;;3.13;;
29352;SDS011;16344;50.364;8.944;2023-04-12T06:25:03;10.25;;;3.00;;
29352;SDS011;16344;50.364;8.944;2023-04-12T06:27:29;14.50;;;2.83;;
29352;SDS011;16344;50.364;8.944;2023-04-12T06:29:55;8.57;;;2.63;;
29352;SDS011;16344;50.364;8.944;2023-04-12T06:32:21;6.50;;;2.33;;
29352;SDS011;16344;50.364;8.944;2023-04-12T06:34:47;7.60;;;2.55;;
29352;SDS011;16344;50.364;8.944;2023-04-12T06:37:12;11.35;;;2.85;;
29352;SDS011;16344;50.364;8.944;2023-04-12T06:39:38;5.68;;;1.80;;
29352;SDS011;16344;50.364;8.944;2023-04-12T06:42:03;10.20;;;2.60;;
29352;SDS011;16344;50.364;8.944;2023-04-12T06:44:29;11.43;;;2.58;;
29352;SDS011;16344;50.364;8.944;2023-04-12T06:46:57;5.22;;;2.42;;
29352;SDS011;16344;50.364;8.944;2023-04-12T06:49:22;8.02;;;2.58;;
29352;SDS011;16344;50.364;8.944;2023-04-12T06:51:48;14.45;;;2.85;;
29352;SDS011;16344;50.364;8.944;2023-04-12T06:54:13;7.78;;;2.10;;
29352;SDS011;16344;50.364;8.944;2023-04-12T06:56:39;13.18;;;2.60;;
29352;SDS011;16344;50.364;8.944;2023-04-12T06:59:04;7.10;;;2.25;;
29352;SDS011;16344;50.364;8.944;2023-04-12T07:01:30;6.57;;;2.67;;
29352;SDS011;16344;50.364;8.944;2023-04-12T07:03:56;9.00;;;2.53;;
29352;SDS011;16344;50.364;8.944;2023-04-12T07:06:21;6.45;;;2.42;;
29352;SDS011;16344;50.364;8.944;2023-04-12T07:08:47;8.93;;;2.63;;
29352;SDS011;16344;50.364;8.944;2023-04-12T07:11:13;11.90;;;2.65;;
29352;SDS011;16344;50.364;8.944;2023-04-12T07:13:39;18.33;;;2.30;;
29352;SDS011;16344;50.364;8.944;2023-04-12T07:16:05;6.47;;;2.13;;
29352;SDS011;16344;50.364;8.944;2023-04-12T07:18:30;5.05;;;2.65;;
29352;SDS011;16344;50.364;8.944;2023-04-12T07:20:57;7.40;;;1.98;;
29352;SDS011;16344;50.364;8.944;2023-04-12T07:23:22;4.38;;;2.28;;
29352;SDS011;16344;50.364;8.944;2023-04-12T07:25:49;7.32;;;2.15;;
29352;SDS011;16344;50.364;8.944;2023-04-12T07:28:15;7.75;;;1.90;;
29352;SDS011;16344;50.364;8.944;2023-04-12T07:30:41;10.10;;;2.40;;
29352;SDS011;16344;50.364;8.944;2023-04-12T07:33:06;4.07;;;1.67;;
29352;SDS011;16344;50.364;8.944;2023-04-12T07:35:32;8.75;;;2.00;;
29352;SDS011;16344;50.364;8.944;2023-04-12T07:37:58;8.18;;;2.58;;
29352;SDS011;16344;50.364;8.944;2023-04-12T07:40:25;2.65;;;1.50;;
29352;SDS011;16344;50.364;8.944;2023-04-12T07:42:50;6.30;;;2.17;;
29352;SDS011;16344;50.364;8.944;2023-04-12T07:45:16;5.30;;;1.80;;
29352;SDS011;16344;50.364;8.944;2023-04-12T07:47:43;7.80;;;2.28;;
29352;SDS011;16344;50.364;8.944;2023-04-12T07:50:08;4.00;;;1.77;;
29352;SDS011;16344;50.364;8.944;2023-04-12T07:52:34;3.92;;;1.88;;
29352;SDS011;16344;50.364;8.944;2023-04-12T07:55:00;7.90;;;2.10;;
29352;SDS011;16344;50.364;8.944;2023-04-12T07:57:25;7.80;;;2.20;;
29352;SDS011;16344;50.364;8.944;2023-04-12T07:59:51;6.45;;;2.22;;
29352;SDS011;16344;50.364;8.944;2023-04-12T08:02:16;12.23;;;2.28;;
29352;SDS011;16344;50.364;8.944;2023-04-12T08:04:51;8.85;;;2.20;;
29352;SDS011;16344;50.364;8.944;2023-04-12T08:07:17;7.63;;;1.95;;
29352;SDS011;16344;50.364;8.944;2023-04-12T08:09:43;5.25;;;1.90;;
29352;SDS011;16344;50.364;8.944;2023-04-12T08:12:09;4.28;;;1.83;;
29352;SDS011;16344;50.364;8.944;2023-04-12T08:14:35;5.72;;;2.03;;
29352;SDS011;16344;50.364;8.944;2023-04-12T08:17:01;2.45;;;1.55;;
29352;SDS011;16344;50.364;8.944;2023-04-12T08:19:26;2.65;;;1.80;;
29352;SDS011;16344;50.364;8.944;2023-04-12T08:21:52;3.33;;;1.83;;
29352;SDS011;16344;50.364;8.944;2023-04-12T08:24:17;3.67;;;1.50;;
29352;SDS011;16344;50.364;8.944;2023-04-12T08:26:44;4.15;;;1.45;;
29352;SDS011;16344;50.364;8.944;2023-04-12T08:29:09;3.53;;;1.85;;
29352;SDS011;16344;50.364;8.944;2023-04-12T08:31:35;6.85;;;1.77;;
29352;SDS011;16344;50.364;8.944;2023-04-12T08:34:00;6.90;;;1.90;;
29352;SDS011;16344;50.364;8.944;2023-04-12T08:36:26;9.27;;;4.47;;
29352;SDS011;16344;50.364;8.944;2023-04-12T08:38:52;39.58;;;16.38;;
29352;SDS011;16344;50.364;8.944;2023-04-12T08:41:20;9.70;;;4.20;;
29352;SDS011;16344;50.364;8.944;2023-04-12T08:43:46;7.05;;;3.40;;
29352;SDS011;16344;50.364;8.944;2023-04-12T08:46:13;3.58;;;2.03;;
29352;SDS011;16344;50.364;8.944;2023-04-12T08:48:43;6.05;;;1.95;;
29352;SDS011;16344;50.364;8.944;2023-04-12T08:51:12;5.00;;;2.50;;
29352;SDS011;16344;50.364;8.944;2023-04-12T08:53:39;4.18;;;1.52;;
29352;SDS011;16344;50.364;8.944;2023-04-12T08:56:05;5.40;;;1.85;;
29352;SDS011;16344;50.364;8.944;2023-04-12T08:58:34;5.57;;;1.63;;
29352;SDS011;16344;50.364;8.944;2023-04-12T09:01:02;4.68;;;2.00;;
29352;SDS011;16344;50.364;8.944;2023-04-12T09:03:28;8.15;;;1.90;;
29352;SDS011;16344;50.364;8.944;2023-04-12T09:05:55;4.63;;;1.88;;
29352;SDS011;16344;50.364;8.944;2023-04-12T09:08:20;5.13;;;1.90;;
29352;SDS011;16344;50.364;8.944;2023-04-12T09:10:46;4.72;;;1.85;;
29352;SDS011;16344;50.364;8.944;2023-04-12T09:13:11;4.22;;;1.58;;
29352;SDS011;16344;50.364;8.944;2023-04-12T09:15:46;5.85;;;2.00;;
29352;SDS011;16344;50.364;8.944;2023-04-12T09:18:12;3.40;;;1.98;;
29352;SDS011;16344;50.364;8.944;2023-04-12T09:20:38;3.10;;;2.30;;
29352;SDS011;16344;50.364;8.944;2023-04-12T09:23:20;5.57;;;1.63;;
29352;SDS011;16344;50.364;8.944;2023-04-12T09:25:48;5.32;;;2.10;;
29352;SDS011;16344;50.364;8.944;2023-04-12T09:28:26;9.73;;;1.98;;
29352;SDS011;16344;50.364;8.944;2023-04-12T09:30:54;4.53;;;1.70;;
29352;SDS011;16344;50.364;8.944;2023-04-12T09:33:21;4.72;;;2.33;;
29352;SDS011;16344;50.364;8.944;2023-04-12T09:36:00;4.30;;;2.25;;
29352;SDS011;16344;50.364;8.944;2023-04-12T09:38:28;4.38;;;2.28;;
29352;SDS011;16344;50.364;8.944;2023-04-12T09:40:54;4.57;;;2.05;;
29352;SDS011;16344;50.364;8.944;2023-04-12T09:43:34;5.75;;;1.73;;
29352;SDS011;16344;50.364;8.944;2023-04-12T09:46:10;5.47;;;1.73;;
29352;SDS011;16344;50.364;8.944;2023-04-12T09:48:40;5.63;;;3.10;;
29352;SDS011;16344;50.364;8.944;2023-04-12T09:51:12;8.77;;;1.70;;
29352;SDS011;16344;50.364;8.944;2023-04-12T09:53:38;6.68;;;2.00;;
29352;SDS011;16344;50.364;8.944;2023-04-12T09:56:10;6.70;;;1.77;;
29352;SDS011;16344;50.364;8.944;2023-04-12T09:58:37;12.20;;;3.63;;
29352;SDS011;16344;50.364;8.944;2023-04-12T10:01:04;9.05;;;4.30;;
29352;SDS011;16344;50.364;8.944;2023-04-12T10:03:33;6.57;;;2.35;;
29352;SDS011;16344;50.364;8.944;2023-04-12T10:05:59;9.75;;;5.10;;
29352;SDS011;16344;50.364;8.944;2023-04-12T10:08:28;5.55;;;2.40;;
29352;SDS011;16344;50.364;8.944;2023-04-12T10:10:55;10.07;;;2.97;;
29352;SDS011;16344;50.364;8.944;2023-04-12T10:13:21;3.70;;;1.98;;
29352;SDS011;16344;50.364;8.944;2023-04-12T10:15:48;3.03;;;1.60;;
29352;SDS011;16344;50.364;8.944;2023-04-12T10:18:16;3.55;;;1.88;;
29352;SDS011;16344;50.364;8.944;2023-04-12T10:20:42;9.10;;;3.13;;
29352;SDS011;16344;50.364;8.944;2023-04-12T10:23:10;11.98;;;5.55;;
29352;SDS011;16344;50.364;8.944;2023-04-12T10:25:37;13.32;;;4.28;;
29352;SDS011;16344;50.364;8.944;2023-04-12T10:28:17;12.25;;;3.10;;
29352;SDS011;16344;50.364;8.944;2023-04-12T10:30:45;5.50;;;2.67;;
29352;SDS011;16344;50.364;8.944;2023-04-12T10:33:16;7.15;;;2.50;;
29352;SDS011;16344;50.364;8.944;2023-04-12T10:35:56;4.03;;;2.83;;
29352;SDS011;16344;50.364;8.944;2023-04-12T10:38:24;6.60;;;2.85;;
29352;SDS011;16344;50.364;8.944;2023-04-12T10:43:42;15.68;;;5.68;;
29352;SDS011;16344;50.364;8.944;2023-04-12T10:49:16;10.95;;;3.17;;
29352;SDS011;16344;50.364;8.944;2023-04-12T10:54:30;8.70;;;2.80;;
29352;SDS011;16344;50.364;8.944;2023-04-12T10:56:59;9.23;;;3.47;;
29352;SDS011;16344;50.364;8.944;2023-04-12T10:59:26;8.32;;;3.17;;
29352;SDS011;16344;50.364;8.944;2023-04-12T11:02:18;7.63;;;3.17;;
29352;SDS011;16344;50.364;8.944;2023-04-12T11:07:39;8.27;;;2.95;;
29352;SDS011;16344;50.364;8.944;2023-04-12T11:10:15;7.57;;;2.92;;
29352;SDS011;16344;50.364;8.944;2023-04-12T11:12:53;6.93;;;3.45;;
29352;SDS011;16344;50.364;8.944;2023-04-12T11:15:23;9.05;;;2.80;;
29352;SDS011;16344;50.364;8.944;2023-04-12T11:17:53;5.82;;;3.30;;
29352;SDS011;16344;50.364;8.944;2023-04-12T11:20:20;9.05;;;3.63;;
29352;SDS011;16344;50.364;8.944;2023-04-12T11:22:46;6.88;;;3.15;;
29352;SDS011;16344;50.364;8.944;2023-04-12T11:25:15;7.38;;;3.40;;
29352;SDS011;16344;50.364;8.944;2023-04-12T11:27:47;13.02;;;4.22;;
29352;SDS011;16344;50.364;8.944;2023-04-12T11:30:17;14.20;;;3.25;;
29352;SDS011;16344;50.364;8.944;2023-04-12T11:32:44;7.38;;;3.53;;
29352;SDS011;16344;50.364;8.944;2023-04-12T11:35:10;9.00;;;3.97;;
29352;SDS011;16344;50.364;8.944;2023-04-12T11:37:36;17.65;;;5.00;;
29352;SDS011;16344;50.364;8.944;2023-04-12T11:40:02;9.07;;;3.70;;
29352;SDS011;16344;50.364;8.944;2023-04-12T11:42:32;7.68;;;3.45;;
29352;SDS011;16344;50.364;8.944;2023-04-12T11:44:58;14.60;;;3.58;;
29352;SDS011;16344;50.364;8.944;2023-04-12T11:47:24;8.73;;;3.50;;
29352;SDS011;16344;50.364;8.944;2023-04-12T11:49:54;11.95;;;4.05;;
29352;SDS011;16344;50.364;8.944;2023-04-12T11:52:28;11.65;;;4.03;;
29352;SDS011;16344;50.364;8.944;2023-04-12T11:54:55;8.18;;;4.00;;
29352;SDS011;16344;50.364;8.944;2023-04-12T11:57:22;7.38;;;4.13;;
29352;SDS011;16344;50.364;8.944;2023-04-12T11:59:48;16.75;;;4.15;;
29352;SDS011;16344;50.364;8.944;2023-04-12T12:02:15;15.60;;;4.60;;
29352;SDS011;16344;50.364;8.944;2023-04-12T12:04:45;15.93;;;4.20;;
29352;SDS011;16344;50.364;8.944;2023-04-12T12:07:12;14.20;;;4.30;;
29352;SDS011;16344;50.364;8.944;2023-04-12T12:09:42;7.68;;;3.92;;
29352;SDS011;16344;50.364;8.944;2023-04-12T12:12:09;12.73;;;4.40;;
29352;SDS011;16344;50.364;8.944;2023-04-12T12:14:36;11.45;;;4.95;;
29352;SDS011;16344;50.364;8.944;2023-04-12T12:17:02;14.93;;;4.30;;
29352;SDS011;16344;50.364;8.944;2023-04-12T12:19:36;9.43;;;4.25;;
29352;SDS011;16344;50.364;8.944;2023-04-12T12:22:09;11.38;;;5.32;;
29352;SDS011;16344;50.364;8.944;2023-04-12T12:24:48;14.32;;;5.38;;
29352;SDS011;16344;50.364;8.944;2023-04-12T12:27:17;13.55;;;5.40;;
29352;SDS011;16344;50.364;8.944;2023-04-12T12:29:43;15.32;;;5.60;;
29352;SDS011;16344;50.364;8.944;2023-04-12T12:32:15;14.52;;;6.57;;
29352;SDS011;16344;50.364;8.944;2023-04-12T12:34:54;11.98;;;6.32;;
29352;SDS011;16344;50.364;8.944;2023-04-12T12:37:23;18.58;;;6.55;;
29352;SDS011;16344;50.364;8.944;2023-04-12T12:40:06;15.88;;;6.32;;
29352;SDS011;16344;50.364;8.944;2023-04-12T12:42:50;15.10;;;6.63;;
29352;SDS011;16344;50.364;8.944;2023-04-12T12:45:19;24.58;;;7.18;;
29352;SDS011;16344;50.364;8.944;2023-04-12T12:48:02;14.68;;;5.93;;
29352;SDS011;16344;50.364;8.944;2023-04-12T12:50:28;13.32;;;6.40;;
29352;SDS011;16344;50.364;8.944;2023-04-12T12:52:56;19.55;;;7.30;;
29352;SDS011;16344;50.364;8.944;2023-04-12T12:55:22;22.50;;;9.05;;
29352;SDS011;16344;50.364;8.944;2023-04-12T12:57:49;18.55;;;6.72;;
29352;SDS011;16344;50.364;8.944;2023-04-12T13:00:17;21.40;;;8.52;;
29352;SDS011;16344;50.364;8.944;2023-04-12T13:02:43;15.50;;;7.00;;
29352;SDS011;16344;50.364;8.944;2023-04-12T13:05:10;17.25;;;7.45;;
29352;SDS011;16344;50.364;8.944;2023-04-12T13:07:36;18.20;;;7.70;;
29352;SDS011;16344;50.364;8.944;2023-04-12T13:10:02;15.82;;;6.63;;
29352;SDS011;16344;50.364;8.944;2023-04-12T13:12:28;15.35;;;8.40;;
29352;SDS011;16344;50.364;8.944;2023-04-12T13:14:55;15.23;;;7.38;;
29352;SDS011;16344;50.364;8.944;2023-04-12T13:17:21;32.33;;;15.15;;
29352;SDS011;16344;50.364;8.944;2023-04-12T13:19:46;19.13;;;8.88;;
29352;SDS011;16344;50.364;8.944;2023-04-12T13:22:12;43.20;;;10.35;;
29352;SDS011;16344;50.364;8.944;2023-04-12T13:24:39;22.75;;;10.60;;
29352;SDS011;16344;50.364;8.944;2023-04-12T13:27:05;12.77;;;7.57;;
29352;SDS011;16344;50.364;8.944;2023-04-12T13:29:32;17.38;;;6.53;;
29352;SDS011;16344;50.364;8.944;2023-04-12T13:31:57;16.30;;;6.70;;
29352;SDS011;16344;50.364;8.944;2023-04-12T13:34:23;15.13;;;6.72;;
29352;SDS011;16344;50.364;8.944;2023-04-12T13:36:48;10.15;;;4.25;;
29352;SDS011;16344;50.364;8.944;2023-04-12T13:39:14;38.55;;;15.80;;
29352;SDS011;16344;50.364;8.944;2023-04-12T13:41:40;31.27;;;11.57;;
29352;SDS011;16344;50.364;8.944;2023-04-12T13:44:05;12.55;;;5.13;;
29352;SDS011;16344;50.364;8.944;2023-04-12T13:46:31;28.10;;;8.60;;
29352;SDS011;16344;50.364;8.944;2023-04-12T13:48:56;17.35;;;7.53;;
29352;SDS011;16344;50.364;8.944;2023-04-12T13:51:22;16.92;;;6.05;;
29352;SDS011;16344;50.364;8.944;2023-04-12T13:53:47;9.30;;;4.07;;
29352;SDS011;16344;50.364;8.944;2023-04-12T13:56:13;8.20;;;4.15;;
29352;SDS011;16344;50.364;8.944;2023-04-12T13:58:40;5.63;;;2.75;;
29352;SDS011;16344;50.364;8.944;2023-04-12T14:01:06;8.05;;;3.63;;
29352;SDS011;16344;50.364;8.944;2023-04-12T14:03:32;4.32;;;1.98;;
29352;SDS011;16344;50.364;8.944;2023-04-12T14:07:13;10.90;;;3.80;;
29352;SDS011;16344;50.364;8.944;2023-04-12T14:09:38;12.70;;;5.78;;
29352;SDS011;16344;50.364;8.944;2023-04-12T14:12:04;15.18;;;7.32;;
29352;SDS011;16344;50.364;8.944;2023-04-12T14:14:29;15.65;;;7.47;;
29352;SDS011;16344;50.364;8.944;2023-04-12T14:16:55;10.93;;;5.00;;
29352;SDS011;16344;50.364;8.944;2023-04-12T14:19:21;7.68;;;5.05;;
29352;SDS011;16344;50.364;8.944;2023-04-12T14:21:48;6.53;;;4.00;;
29352;SDS011;16344;50.364;8.944;2023-04-12T14:24:14;13.48;;;4.13;;
29352;SDS011;16344;50.364;8.944;2023-04-12T14:26:40;8.20;;;3.45;;
29352;SDS011;16344;50.364;8.944;2023-04-12T14:29:05;3.47;;;2.47;;
29352;SDS011;16344;50.364;8.944;2023-04-12T14:31:31;5.78;;;2.50;;
29352;SDS011;16344;50.364;8.944;2023-04-12T14:33:58;5.93;;;2.78;;
29352;SDS011;16344;50.364;8.944;2023-04-12T14:36:23;7.85;;;2.78;;
29352;SDS011;16344;50.364;8.944;2023-04-12T14:38:49;5.20;;;2.35;;
29352;SDS011;16344;50.364;8.944;2023-04-12T14:41:15;3.35;;;1.90;;
29352;SDS011;16344;50.364;8.944;2023-04-12T14:43:41;10.88;;;2.50;;
29352;SDS011;16344;50.364;8.944;2023-04-12T14:46:06;7.55;;;2.35;;
29352;SDS011;16344;50.364;8.944;2023-04-12T14:48:32;4.45;;;2.40;;
29352;SDS011;16344;50.364;8.944;2023-04-12T14:50:57;9.38;;;2.67;;
29352;SDS011;16344;50.364;8.944;2023-04-12T14:53:23;8.43;;;2.38;;
29352;SDS011;16344;50.364;8.944;2023-04-12T14:55:48;5.07;;;2.17;;
29352;SDS011;16344;50.364;8.944;2023-04-12T14:58:14;6.32;;;2.40;;
29352;SDS011;16344;50.364;8.944;2023-04-12T15:00:39;5.88;;;2.15;;
29352;SDS011;16344;50.364;8.944;2023-04-12T15:03:05;6.85;;;2.30;;
29352;SDS011;16344;50.364;8.944;2023-04-12T15:05:31;3.20;;;1.85;;